createdAt,value
2017-09-07T00:00:25.563Z,0
2017-09-07T00:01:25.617Z,0
2017-09-07T00:02:25.880Z,0
2017-09-07T00:03:25.574Z,0
2017-09-07T00:04:25.573Z,0
2017-09-07T00:05:24.953Z,0
2017-09-07T00:06:25.909Z,0
2017-09-07T00:07:25.575Z,0
2017-09-07T00:08:25.913Z,0
2017-09-07T00:09:25.596Z,0
2017-09-07T00:10:25.890Z,0
2017-09-07T00:11:25.905Z,0
2017-09-07T00:12:25.304Z,0
2017-09-07T00:13:25.577Z,0
2017-09-07T00:14:26.838Z,0
2017-09-07T00:15:25.573Z,0
2017-09-07T00:16:25.597Z,0
2017-09-07T00:17:25.891Z,0
2017-09-07T00:18:25.923Z,0
2017-09-07T00:19:25.571Z,0
2017-09-07T00:20:25.893Z,0
2017-09-07T00:21:25.621Z,0
2017-09-07T00:22:25.887Z,0
2017-09-07T00:23:25.587Z,0
2017-09-07T00:24:25.571Z,0
2017-09-07T00:25:25.590Z,0
2017-09-07T00:26:25.941Z,0
2017-09-07T00:27:25.589Z,0
2017-09-07T00:28:25.270Z,0
2017-09-07T00:29:29.290Z,0
2017-09-07T00:30:25.166Z,0
2017-09-07T00:31:26.053Z,0
2017-09-07T00:32:25.652Z,0
2017-09-07T00:33:25.984Z,0
2017-09-07T00:34:25.682Z,0
2017-09-07T00:35:25.271Z,0
2017-09-07T00:36:25.636Z,0
2017-09-07T00:37:25.574Z,0
2017-09-07T00:38:25.575Z,0
2017-09-07T00:39:25.586Z,0
2017-09-07T00:40:25.269Z,0
2017-09-07T00:41:25.954Z,0
2017-09-07T00:42:25.583Z,0
2017-09-07T00:43:25.580Z,0
2017-09-07T00:44:25.581Z,0
2017-09-07T00:45:25.832Z,0
2017-09-07T00:46:25.664Z,0
2017-09-07T00:47:25.271Z,0
2017-09-07T00:48:25.592Z,0
2017-09-07T00:49:25.579Z,0
2017-09-07T00:50:25.586Z,0
2017-09-07T00:51:25.965Z,0
2017-09-07T00:52:25.591Z,0
2017-09-07T00:53:25.276Z,0
2017-09-07T00:54:25.586Z,0
2017-09-07T00:55:25.927Z,0
2017-09-07T00:56:25.294Z,0
2017-09-07T00:57:25.901Z,0
2017-09-07T00:58:25.899Z,0
2017-09-07T00:59:25.930Z,0
2017-09-07T01:00:25.588Z,0
2017-09-07T01:01:25.899Z,0
2017-09-07T01:02:25.967Z,0
2017-09-07T01:03:25.904Z,0
2017-09-07T01:04:25.916Z,0
2017-09-07T01:05:25.587Z,0
2017-09-07T01:06:25.592Z,0
2017-09-07T01:07:25.284Z,0
2017-09-07T01:08:25.901Z,0
2017-09-07T01:09:25.601Z,0
2017-09-07T01:10:25.308Z,0
2017-09-07T01:11:25.919Z,0
2017-09-07T01:12:25.907Z,0
2017-09-07T01:13:25.280Z,0
2017-09-07T01:14:25.911Z,0
2017-09-07T01:15:31.454Z,0
2017-09-07T01:16:25.684Z,0
2017-09-07T01:17:25.906Z,0
2017-09-07T01:18:25.286Z,0
2017-09-07T01:19:25.907Z,0
2017-09-07T01:20:25.600Z,0
2017-09-07T01:21:25.625Z,0
2017-09-07T01:22:25.596Z,0
2017-09-07T01:23:25.906Z,0
2017-09-07T01:24:25.597Z,0
2017-09-07T01:25:25.602Z,0
2017-09-07T01:26:25.636Z,0
2017-09-07T01:27:25.595Z,0
2017-09-07T01:28:25.912Z,0
2017-09-07T01:29:25.595Z,0
2017-09-07T01:30:25.593Z,0
2017-09-07T01:31:25.645Z,0
2017-09-07T01:32:25.319Z,0
2017-09-07T01:33:25.946Z,0
2017-09-07T01:34:25.594Z,0
2017-09-07T01:35:25.901Z,0
2017-09-07T01:36:25.649Z,0
2017-09-07T01:37:25.597Z,0
2017-09-07T01:38:25.918Z,0
2017-09-07T01:39:25.599Z,0
2017-09-07T01:40:25.286Z,0
2017-09-07T01:41:25.598Z,0
2017-09-07T01:42:25.591Z,0
2017-09-07T01:43:25.603Z,0
2017-09-07T01:44:25.906Z,0
2017-09-07T01:45:25.596Z,0
2017-09-07T01:46:29.187Z,0
2017-09-07T01:47:24.981Z,0
2017-09-07T01:48:25.919Z,0
2017-09-07T01:49:25.907Z,0
2017-09-07T01:50:25.291Z,0
2017-09-07T01:51:25.639Z,0
2017-09-07T01:52:25.299Z,0
2017-09-07T01:53:25.622Z,0
2017-09-07T01:54:25.911Z,0
2017-09-07T01:55:25.604Z,0
2017-09-07T01:56:25.679Z,0
2017-09-07T01:57:25.610Z,0
2017-09-07T01:58:25.291Z,0
2017-09-07T01:59:25.601Z,0
2017-09-07T02:00:25.916Z,0
2017-09-07T02:01:25.604Z,0
2017-09-07T02:02:25.917Z,0
2017-09-07T02:03:25.293Z,0
2017-09-07T02:04:25.601Z,0
2017-09-07T02:05:25.915Z,0
2017-09-07T02:06:25.646Z,0
2017-09-07T02:07:25.913Z,0
2017-09-07T02:08:25.609Z,0
2017-09-07T02:09:25.594Z,0
2017-09-07T02:10:25.299Z,0
2017-09-07T02:11:25.662Z,0
2017-09-07T02:12:25.612Z,0
2017-09-07T02:13:25.606Z,0
2017-09-07T02:14:25.605Z,0
2017-09-07T02:15:25.603Z,0
2017-09-07T02:16:26.211Z,0
2017-09-07T02:17:25.604Z,0
2017-09-07T02:18:25.924Z,0
2017-09-07T02:19:25.606Z,0
2017-09-07T02:20:25.638Z,0
2017-09-07T02:21:25.668Z,0
2017-09-07T02:22:25.944Z,0
2017-09-07T02:23:25.912Z,0
2017-09-07T02:24:25.943Z,0
2017-09-07T02:25:25.594Z,0
2017-09-07T02:26:25.617Z,0
2017-09-07T02:27:25.967Z,0
2017-09-07T02:28:25.033Z,0
2017-09-07T02:29:25.296Z,0
2017-09-07T02:30:25.601Z,0
2017-09-07T02:31:25.313Z,0
2017-09-07T02:32:25.603Z,0
2017-09-07T02:33:25.599Z,0
2017-09-07T02:34:25.615Z,0
2017-09-07T02:35:25.923Z,0
2017-09-07T02:36:25.702Z,0
2017-09-07T02:37:25.609Z,0
2017-09-07T02:38:25.605Z,0
2017-09-07T02:39:25.292Z,0
2017-09-07T02:40:25.617Z,0
2017-09-07T02:41:25.622Z,0
2017-09-07T02:42:25.930Z,0
2017-09-07T02:43:25.608Z,0
2017-09-07T02:44:25.930Z,0
2017-09-07T02:45:25.292Z,0
2017-09-07T02:46:27.694Z,0
2017-09-07T02:47:25.611Z,0
2017-09-07T02:48:25.602Z,0
2017-09-07T02:49:25.597Z,0
2017-09-07T02:50:25.608Z,0
2017-09-07T02:51:25.972Z,0
2017-09-07T02:52:25.289Z,0
2017-09-07T02:53:25.935Z,0
2017-09-07T02:54:25.599Z,0
2017-09-07T02:55:25.908Z,0
2017-09-07T02:56:25.318Z,0
2017-09-07T02:57:24.981Z,0
2017-09-07T02:58:25.603Z,0
2017-09-07T02:59:25.286Z,0
2017-09-07T03:00:25.385Z,0
2017-09-07T03:01:25.923Z,0
2017-09-07T03:02:25.597Z,0
2017-09-07T03:03:25.911Z,0
2017-09-07T03:04:25.598Z,0
2017-09-07T03:05:25.986Z,0
2017-09-07T03:06:25.345Z,0
2017-09-07T03:07:25.907Z,0
2017-09-07T03:08:25.938Z,0
2017-09-07T03:09:25.901Z,0
2017-09-07T03:10:25.597Z,0
2017-09-07T03:11:25.627Z,0
2017-09-07T03:12:25.598Z,0
2017-09-07T03:13:25.598Z,0
2017-09-07T03:14:25.906Z,0
2017-09-07T03:15:25.906Z,0
2017-09-07T03:16:25.622Z,0
2017-09-07T03:17:26.315Z,0
2017-09-07T03:18:25.602Z,0
2017-09-07T03:19:25.598Z,0
2017-09-07T03:20:25.905Z,0
2017-09-07T03:21:25.337Z,0
2017-09-07T03:22:25.602Z,0
2017-09-07T03:23:25.596Z,0
2017-09-07T03:24:25.288Z,0
2017-09-07T03:25:25.594Z,0
2017-09-07T03:26:25.299Z,0
2017-09-07T03:27:25.607Z,0
2017-09-07T03:28:25.589Z,0
2017-09-07T03:29:25.599Z,0
2017-09-07T03:30:25.910Z,0
2017-09-07T03:31:25.950Z,0
2017-09-07T03:32:25.337Z,0
2017-09-07T03:33:25.605Z,0
2017-09-07T03:34:25.600Z,0
2017-09-07T03:35:25.911Z,0
2017-09-07T03:36:25.296Z,0
2017-09-07T03:37:25.350Z,0
2017-09-07T03:38:25.912Z,0
2017-09-07T03:39:25.612Z,0
2017-09-07T03:40:25.585Z,0
2017-09-07T03:41:25.598Z,0
2017-09-07T03:42:25.587Z,0
2017-09-07T03:43:25.288Z,0
2017-09-07T03:44:25.585Z,0
2017-09-07T03:45:25.589Z,0
2017-09-07T03:46:26.009Z,0
2017-09-07T03:47:29.027Z,0
2017-09-07T03:48:25.899Z,0
2017-09-07T03:49:24.970Z,0
2017-09-07T03:50:25.591Z,0
2017-09-07T03:51:25.333Z,0
2017-09-07T03:52:25.588Z,0
2017-09-07T03:53:25.905Z,0
2017-09-07T03:54:25.583Z,0
2017-09-07T03:55:25.591Z,0
2017-09-07T03:56:25.652Z,0
2017-09-07T03:57:25.584Z,0
2017-09-07T03:58:25.906Z,0
2017-09-07T03:59:25.610Z,0
2017-09-07T04:00:25.589Z,0
2017-09-07T04:01:25.613Z,0
2017-09-07T04:02:25.905Z,0
2017-09-07T04:03:25.579Z,0
2017-09-07T04:04:25.910Z,0
2017-09-07T04:05:25.579Z,0
2017-09-07T04:06:25.584Z,0
2017-09-07T04:07:25.895Z,0
2017-09-07T04:08:25.584Z,0
2017-09-07T04:09:24.962Z,0
2017-09-07T04:10:25.582Z,0
2017-09-07T04:11:25.017Z,0
2017-09-07T04:12:25.908Z,0
2017-09-07T04:13:25.895Z,0
2017-09-07T04:14:25.894Z,0
2017-09-07T04:15:25.582Z,0
2017-09-07T04:16:25.580Z,0
2017-09-07T04:17:25.270Z,0
2017-09-07T04:18:28.087Z,0
2017-09-07T04:19:25.585Z,0
2017-09-07T04:20:25.587Z,0
2017-09-07T04:21:25.690Z,0
2017-09-07T04:22:25.304Z,0
2017-09-07T04:23:25.591Z,4
2017-09-07T04:24:25.889Z,4
2017-09-07T04:25:25.579Z,0
2017-09-07T04:26:25.585Z,4
2017-09-07T04:27:25.582Z,4
2017-09-07T04:28:25.888Z,8
2017-09-07T04:29:25.883Z,4
2017-09-07T04:30:25.575Z,8
2017-09-07T04:31:25.638Z,8
2017-09-07T04:32:25.885Z,8
2017-09-07T04:33:25.941Z,8
2017-09-07T04:34:25.574Z,12
2017-09-07T04:35:25.276Z,16
2017-09-07T04:36:25.308Z,20
2017-09-07T04:37:25.577Z,24
2017-09-07T04:38:25.879Z,28
2017-09-07T04:39:25.587Z,32
2017-09-07T04:40:25.601Z,36
2017-09-07T04:41:25.575Z,44
2017-09-07T04:42:25.880Z,52
2017-09-07T04:43:25.888Z,56
2017-09-07T04:44:25.883Z,68
2017-09-07T04:45:25.267Z,80
2017-09-07T04:46:25.983Z,92
2017-09-07T04:47:25.884Z,108
2017-09-07T04:48:27.314Z,124
2017-09-07T04:49:25.258Z,140
2017-09-07T04:50:25.876Z,156
2017-09-07T04:51:25.932Z,172
2017-09-07T04:52:25.576Z,188
2017-09-07T04:53:25.257Z,208
2017-09-07T04:54:25.566Z,224
2017-09-07T04:55:25.563Z,244
2017-09-07T04:56:25.626Z,256
2017-09-07T04:57:25.560Z,272
2017-09-07T04:58:24.946Z,280
2017-09-07T04:59:25.565Z,292
2017-09-07T05:00:25.869Z,308
2017-09-07T05:01:25.872Z,324
2017-09-07T05:02:25.559Z,344
2017-09-07T05:03:25.568Z,360
2017-09-07T05:04:25.902Z,384
2017-09-07T05:05:25.563Z,412
2017-09-07T05:06:25.634Z,452
2017-09-07T05:07:25.554Z,492
2017-09-07T05:08:25.865Z,532
2017-09-07T05:09:25.248Z,576
2017-09-07T05:10:25.610Z,624
2017-09-07T05:11:25.911Z,660
2017-09-07T05:12:24.938Z,704
2017-09-07T05:13:25.860Z,744
2017-09-07T05:14:25.561Z,760
2017-09-07T05:15:25.551Z,788
2017-09-07T05:16:25.679Z,824
2017-09-07T05:17:25.551Z,844
2017-09-07T05:18:29.630Z,864
2017-09-07T05:19:25.545Z,884
2017-09-07T05:20:25.858Z,900
2017-09-07T05:21:25.580Z,904
2017-09-07T05:22:25.860Z,884
2017-09-07T05:23:25.544Z,908
2017-09-07T05:24:25.543Z,928
2017-09-07T05:25:25.550Z,944
2017-09-07T05:26:25.279Z,916
2017-09-07T05:27:25.867Z,956
2017-09-07T05:28:25.857Z,1040
2017-09-07T05:29:25.545Z,1084
2017-09-07T05:30:25.908Z,1104
2017-09-07T05:31:25.876Z,1120
2017-09-07T05:32:25.858Z,1144
2017-09-07T05:33:25.542Z,1144
2017-09-07T05:34:25.591Z,1116
2017-09-07T05:35:25.840Z,1084
2017-09-07T05:36:25.537Z,1040
2017-09-07T05:37:25.860Z,1000
2017-09-07T05:38:25.849Z,980
2017-09-07T05:39:25.231Z,976
2017-09-07T05:40:25.534Z,988
2017-09-07T05:41:25.247Z,1032
2017-09-07T05:42:25.221Z,1108
2017-09-07T05:43:25.547Z,1128
2017-09-07T05:44:25.560Z,1068
2017-09-07T05:45:25.841Z,1072
2017-09-07T05:46:25.581Z,1156
2017-09-07T05:47:25.531Z,1260
2017-09-07T05:48:25.524Z,1284
2017-09-07T05:49:26.887Z,1280
2017-09-07T05:50:25.220Z,1268
2017-09-07T05:51:25.534Z,1248
2017-09-07T05:52:25.533Z,1216
2017-09-07T05:53:25.538Z,1220
2017-09-07T05:54:25.218Z,1220
2017-09-07T05:55:25.844Z,1236
2017-09-07T05:56:25.217Z,1332
2017-09-07T05:57:25.229Z,1404
2017-09-07T05:58:25.538Z,1432
2017-09-07T05:59:25.218Z,1452
2017-09-07T06:00:25.832Z,1528
2017-09-07T06:01:25.524Z,1584
2017-09-07T06:02:25.830Z,1616
2017-09-07T06:03:25.835Z,1656
2017-09-07T06:04:25.525Z,1680
2017-09-07T06:05:25.520Z,1704
2017-09-07T06:06:25.829Z,1736
2017-09-07T06:07:25.858Z,1728
2017-09-07T06:08:25.526Z,1700
2017-09-07T06:09:25.528Z,1756
2017-09-07T06:10:25.860Z,1780
2017-09-07T06:11:25.606Z,1800
2017-09-07T06:12:25.527Z,1864
2017-09-07T06:13:25.529Z,1900
2017-09-07T06:14:25.853Z,1904
2017-09-07T06:15:25.223Z,1988
2017-09-07T06:16:25.838Z,2092
2017-09-07T06:17:25.236Z,2160
2017-09-07T06:18:25.526Z,2232
2017-09-07T06:19:25.208Z,2308
2017-09-07T06:20:25.529Z,2348
2017-09-07T06:21:25.612Z,2376
2017-09-07T06:22:25.843Z,2440
2017-09-07T06:23:25.823Z,2564
2017-09-07T06:24:25.526Z,2756
2017-09-07T06:25:25.832Z,2968
2017-09-07T06:26:25.832Z,3108
2017-09-07T06:27:25.535Z,3240
2017-09-07T06:28:25.523Z,3436
2017-09-07T06:29:25.534Z,3648
2017-09-07T06:30:25.514Z,3864
2017-09-07T06:31:25.910Z,4128
2017-09-07T06:32:25.517Z,4380
2017-09-07T06:33:25.829Z,4640
2017-09-07T06:34:25.830Z,5040
2017-09-07T06:35:25.209Z,5248
2017-09-07T06:36:25.831Z,5596
2017-09-07T06:37:25.532Z,6148
2017-09-07T06:38:25.842Z,7160
2017-09-07T06:39:25.524Z,7920
2017-09-07T06:40:25.836Z,7904
2017-09-07T06:41:25.625Z,8464
2017-09-07T06:42:25.535Z,7744
2017-09-07T06:43:25.527Z,8796
2017-09-07T06:44:25.233Z,8120
2017-09-07T06:45:25.543Z,7812
2017-09-07T06:46:25.563Z,8496
2017-09-07T06:47:25.857Z,7608
2017-09-07T06:48:25.249Z,7844
2017-09-07T06:49:26.644Z,8736
2017-09-07T06:50:25.240Z,7428
2017-09-07T06:51:25.581Z,8960
2017-09-07T06:52:25.576Z,8920
2017-09-07T06:53:25.559Z,8960
2017-09-07T06:54:25.565Z,9212
2017-09-07T06:55:25.882Z,10960
2017-09-07T06:56:25.661Z,11628
2017-09-07T06:57:25.887Z,11000
2017-09-07T06:58:25.583Z,10048
2017-09-07T06:59:25.263Z,9084
2017-09-07T07:00:25.594Z,8748
2017-09-07T07:01:25.602Z,8532
2017-09-07T07:02:25.588Z,8132
2017-09-07T07:03:25.591Z,8416
2017-09-07T07:04:25.603Z,8256
2017-09-07T07:05:24.991Z,8368
2017-09-07T07:06:25.670Z,8040
2017-09-07T07:07:25.607Z,7368
2017-09-07T07:08:25.611Z,5816
2017-09-07T07:09:25.310Z,7156
2017-09-07T07:10:25.617Z,6628
2017-09-07T07:11:25.659Z,5584
2017-09-07T07:12:25.626Z,5460
2017-09-07T07:13:25.649Z,5300
2017-09-07T07:14:25.642Z,5140
2017-09-07T07:15:25.954Z,5264
2017-09-07T07:16:25.733Z,5180
2017-09-07T07:17:25.649Z,5240
2017-09-07T07:18:25.658Z,5456
2017-09-07T07:19:27.713Z,5464
2017-09-07T07:20:25.671Z,5772
2017-09-07T07:21:25.980Z,6064
2017-09-07T07:22:25.995Z,6132
2017-09-07T07:23:25.358Z,6292
2017-09-07T07:24:25.672Z,6420
2017-09-07T07:25:25.680Z,6600
2017-09-07T07:26:26.018Z,6504
2017-09-07T07:27:25.371Z,6504
2017-09-07T07:28:25.689Z,6440
2017-09-07T07:29:25.381Z,6304
2017-09-07T07:30:25.389Z,6364
2017-09-07T07:31:25.451Z,6348
2017-09-07T07:32:25.707Z,6364
2017-09-07T07:33:26.028Z,6416
2017-09-07T07:34:25.742Z,6520
2017-09-07T07:35:25.394Z,6648
2017-09-07T07:36:25.746Z,6868
2017-09-07T07:37:25.405Z,7168
2017-09-07T07:38:25.405Z,7480
2017-09-07T07:39:26.040Z,7248
2017-09-07T07:40:25.723Z,7000
2017-09-07T07:41:25.414Z,6900
2017-09-07T07:42:26.039Z,7032
2017-09-07T07:43:26.044Z,7212
2017-09-07T07:44:26.075Z,7364
2017-09-07T07:45:25.733Z,7644
2017-09-07T07:46:26.105Z,7788
2017-09-07T07:47:26.076Z,7828
2017-09-07T07:48:25.751Z,8128
2017-09-07T07:49:25.751Z,7828
2017-09-07T07:50:28.461Z,7620
2017-09-07T07:51:25.181Z,7408
2017-09-07T07:52:25.755Z,7300
2017-09-07T07:53:26.077Z,7304
2017-09-07T07:54:25.458Z,7424
2017-09-07T07:55:25.469Z,7600
2017-09-07T07:56:25.456Z,7796
2017-09-07T07:57:25.781Z,7968
2017-09-07T07:58:25.784Z,8192
2017-09-07T07:59:25.778Z,8364
2017-09-07T08:00:25.793Z,8336
2017-09-07T08:01:25.782Z,8272
2017-09-07T08:02:26.110Z,8228
2017-09-07T08:03:25.797Z,8308
2017-09-07T08:04:25.488Z,8504
2017-09-07T08:05:26.085Z,8608
2017-09-07T08:06:25.495Z,8624
2017-09-07T08:07:25.804Z,8644
2017-09-07T08:08:25.806Z,8668
2017-09-07T08:09:25.819Z,8712
2017-09-07T08:10:25.812Z,8528
2017-09-07T08:11:26.195Z,8320
2017-09-07T08:12:25.523Z,8172
2017-09-07T08:13:25.817Z,8540
2017-09-07T08:14:26.149Z,8532
2017-09-07T08:15:26.144Z,8596
2017-09-07T08:16:25.836Z,8636
2017-09-07T08:17:25.538Z,8752
2017-09-07T08:18:25.534Z,8852
2017-09-07T08:19:25.535Z,8876
2017-09-07T08:20:28.470Z,8784
2017-09-07T08:21:26.187Z,8860
2017-09-07T08:22:25.854Z,8956
2017-09-07T08:23:26.160Z,9044
2017-09-07T08:24:26.169Z,8844
2017-09-07T08:25:25.551Z,8720
2017-09-07T08:26:25.952Z,8764
2017-09-07T08:27:25.885Z,8960
2017-09-07T08:28:25.570Z,9100
2017-09-07T08:29:25.885Z,9212
2017-09-07T08:30:25.883Z,9108
2017-09-07T08:31:26.268Z,8776
2017-09-07T08:32:25.580Z,8508
2017-09-07T08:33:25.885Z,8616
2017-09-07T08:34:26.209Z,8796
2017-09-07T08:35:25.918Z,8952
2017-09-07T08:36:26.209Z,8656
2017-09-07T08:37:25.909Z,8592
2017-09-07T08:38:25.619Z,8724
2017-09-07T08:39:26.216Z,8948
2017-09-07T08:40:26.221Z,9148
2017-09-07T08:41:26.232Z,9100
2017-09-07T08:42:26.229Z,8896
2017-09-07T08:43:26.230Z,9168
2017-09-07T08:44:25.930Z,9696
2017-09-07T08:45:25.952Z,9928
2017-09-07T08:46:26.059Z,9472
2017-09-07T08:47:25.943Z,9212
2017-09-07T08:48:25.947Z,8688
2017-09-07T08:49:25.951Z,10324
2017-09-07T08:50:25.956Z,9008
2017-09-07T08:51:28.228Z,10392
2017-09-07T08:52:25.950Z,9496
2017-09-07T08:53:25.997Z,9852
2017-09-07T08:54:26.288Z,10320
2017-09-07T08:55:25.967Z,10404
2017-09-07T08:56:26.278Z,10252
2017-09-07T08:57:26.279Z,10588
2017-09-07T08:58:25.980Z,10356
2017-09-07T08:59:25.977Z,10836
2017-09-07T09:00:25.994Z,10532
2017-09-07T09:01:25.677Z,10528
2017-09-07T09:02:25.989Z,10700
2017-09-07T09:03:25.695Z,10292
2017-09-07T09:04:26.313Z,10388
2017-09-07T09:05:26.316Z,10508
2017-09-07T09:06:28.911Z,11384
2017-09-07T09:07:26.321Z,10756
2017-09-07T09:08:26.031Z,10816
2017-09-07T09:09:26.039Z,10544
2017-09-07T09:10:26.039Z,10508
2017-09-07T09:11:26.122Z,10376
2017-09-07T09:12:26.057Z,10196
2017-09-07T09:13:25.741Z,9824
2017-09-07T09:14:26.060Z,9296
2017-09-07T09:15:26.053Z,9148
2017-09-07T09:16:26.060Z,8940
2017-09-07T09:17:26.366Z,8648
2017-09-07T09:18:26.063Z,8544
2017-09-07T09:19:25.746Z,9248
2017-09-07T09:20:26.373Z,9812
2017-09-07T09:21:26.367Z,9832
2017-09-07T09:22:26.071Z,9312
2017-09-07T09:23:26.074Z,10620
2017-09-07T09:24:26.073Z,9132
2017-09-07T09:25:26.071Z,8664
2017-09-07T09:26:26.476Z,9412
2017-09-07T09:27:26.104Z,11032
2017-09-07T09:28:26.102Z,10392
2017-09-07T09:29:26.113Z,11440
2017-09-07T09:30:26.103Z,12264
2017-09-07T09:31:26.410Z,11576
2017-09-07T09:32:26.115Z,12524
2017-09-07T09:33:26.121Z,12536
2017-09-07T09:34:25.809Z,12504
2017-09-07T09:35:25.804Z,12404
2017-09-07T09:36:26.120Z,9996
2017-09-07T09:37:26.430Z,11720
2017-09-07T09:38:25.818Z,12056
2017-09-07T09:39:26.138Z,12616
2017-09-07T09:40:26.450Z,13048
2017-09-07T09:41:26.212Z,13140
2017-09-07T09:42:26.450Z,12980
2017-09-07T09:43:26.151Z,11536
2017-09-07T09:44:26.468Z,11996
2017-09-07T09:45:26.154Z,12556
2017-09-07T09:46:26.242Z,12220
2017-09-07T09:47:26.177Z,9860
2017-09-07T09:48:26.169Z,10076
2017-09-07T09:49:26.484Z,10256
2017-09-07T09:50:26.175Z,8980
2017-09-07T09:51:26.185Z,8380
2017-09-07T09:52:29.399Z,7420
2017-09-07T09:53:26.194Z,6844
2017-09-07T09:54:26.513Z,6684
2017-09-07T09:55:26.513Z,9184
2017-09-07T09:56:26.276Z,5908
2017-09-07T09:57:26.516Z,6548
2017-09-07T09:58:26.209Z,5056
2017-09-07T09:59:26.214Z,4516
2017-09-07T10:00:26.219Z,4376
2017-09-07T10:01:25.626Z,4384
2017-09-07T10:02:25.917Z,4448
2017-09-07T10:03:26.223Z,4508
2017-09-07T10:04:25.922Z,4508
2017-09-07T10:05:26.240Z,4488
2017-09-07T10:06:26.595Z,4400
2017-09-07T10:07:27.393Z,4304
2017-09-07T10:08:26.559Z,4240
2017-09-07T10:09:26.247Z,4180
2017-09-07T10:10:26.559Z,4120
2017-09-07T10:11:26.321Z,4016
2017-09-07T10:12:26.265Z,3868
2017-09-07T10:13:26.273Z,3768
2017-09-07T10:14:26.260Z,3676
2017-09-07T10:15:26.269Z,3732
2017-09-07T10:16:26.270Z,3916
2017-09-07T10:17:26.277Z,4196
2017-09-07T10:18:25.966Z,4608
2017-09-07T10:19:25.660Z,5056
2017-09-07T10:20:26.592Z,5464
2017-09-07T10:21:26.590Z,5736
2017-09-07T10:22:26.587Z,6024
2017-09-07T10:23:26.615Z,6376
2017-09-07T10:24:26.297Z,6788
2017-09-07T10:25:26.311Z,7248
2017-09-07T10:26:26.653Z,7792
2017-09-07T10:27:26.293Z,8188
2017-09-07T10:28:26.611Z,8268
2017-09-07T10:29:26.307Z,8180
2017-09-07T10:30:26.317Z,8268
2017-09-07T10:31:26.641Z,8516
2017-09-07T10:32:26.319Z,8756
2017-09-07T10:33:26.314Z,8992
2017-09-07T10:34:26.627Z,9132
2017-09-07T10:35:26.636Z,9052
2017-09-07T10:36:26.355Z,9144
2017-09-07T10:37:27.926Z,9316
2017-09-07T10:38:25.707Z,9392
2017-09-07T10:39:26.642Z,9304
2017-09-07T10:40:26.659Z,9144
2017-09-07T10:41:26.339Z,9032
2017-09-07T10:42:26.345Z,8960
2017-09-07T10:43:26.342Z,8916
2017-09-07T10:44:26.037Z,8892
2017-09-07T10:45:26.347Z,8832
2017-09-07T10:46:26.730Z,8692
2017-09-07T10:47:26.040Z,8832
2017-09-07T10:48:26.351Z,9104
2017-09-07T10:49:26.052Z,9256
2017-09-07T10:50:26.674Z,9276
2017-09-07T10:51:26.128Z,9428
2017-09-07T10:52:26.058Z,9592
2017-09-07T10:53:27.971Z,9660
2017-09-07T10:54:26.068Z,9648
2017-09-07T10:55:26.721Z,9616
2017-09-07T10:56:26.412Z,9532
2017-09-07T10:57:26.693Z,9384
2017-09-07T10:58:26.712Z,9184
2017-09-07T10:59:26.393Z,9044
2017-09-07T11:00:26.708Z,8808
2017-09-07T11:01:26.159Z,8516
2017-09-07T11:02:26.395Z,8256
2017-09-07T11:03:26.111Z,7884
2017-09-07T11:04:26.410Z,7524
2017-09-07T11:05:26.411Z,7244
2017-09-07T11:06:26.406Z,7152
2017-09-07T11:07:26.111Z,7208
2017-09-07T11:08:26.419Z,7248
2017-09-07T11:09:26.417Z,7248
2017-09-07T11:10:26.429Z,7120
2017-09-07T11:11:26.117Z,7132
2017-09-07T11:12:26.431Z,7184
2017-09-07T11:13:26.431Z,7012
2017-09-07T11:14:26.430Z,6936
2017-09-07T11:15:26.432Z,7044
2017-09-07T11:16:26.449Z,7148
2017-09-07T11:17:26.126Z,7116
2017-09-07T11:18:26.435Z,7092
2017-09-07T11:19:26.442Z,7048
2017-09-07T11:20:26.758Z,7132
2017-09-07T11:21:26.469Z,6972
2017-09-07T11:22:26.143Z,6716
2017-09-07T11:23:29.401Z,6492
2017-09-07T11:24:26.772Z,6544
2017-09-07T11:25:26.464Z,6424
2017-09-07T11:26:26.206Z,6280
2017-09-07T11:27:26.782Z,6304
2017-09-07T11:28:26.468Z,6428
2017-09-07T11:29:26.470Z,6716
2017-09-07T11:30:26.789Z,7116
2017-09-07T11:31:26.539Z,7504
2017-09-07T11:32:26.825Z,7704
2017-09-07T11:33:26.803Z,8248
2017-09-07T11:34:26.830Z,8736
2017-09-07T11:35:26.498Z,8984
2017-09-07T11:36:26.499Z,9196
2017-09-07T11:37:26.823Z,9524
2017-09-07T11:38:26.821Z,9832
2017-09-07T11:39:26.497Z,9964
2017-09-07T11:40:26.195Z,9788
2017-09-07T11:41:26.566Z,9704
2017-09-07T11:42:26.524Z,9532
2017-09-07T11:43:26.828Z,9676
2017-09-07T11:44:26.838Z,9588
2017-09-07T11:45:26.826Z,9660
2017-09-07T11:46:26.870Z,9824
2017-09-07T11:47:26.847Z,9860
2017-09-07T11:48:26.843Z,9748
2017-09-07T11:49:26.850Z,9704
2017-09-07T11:50:26.536Z,9724
2017-09-07T11:51:26.546Z,9736
2017-09-07T11:52:26.550Z,9816
2017-09-07T11:53:30.875Z,9784
2017-09-07T11:54:26.549Z,9732
2017-09-07T11:55:26.571Z,9896
2017-09-07T11:56:26.601Z,9988
2017-09-07T11:57:26.572Z,10124
2017-09-07T11:58:26.875Z,10240
2017-09-07T11:59:26.267Z,10168
2017-09-07T12:00:26.573Z,10208
2017-09-07T12:01:26.591Z,10352
2017-09-07T12:02:26.880Z,9944
2017-09-07T12:03:26.578Z,9968
2017-09-07T12:04:26.577Z,9480
2017-09-07T12:05:26.890Z,9360
2017-09-07T12:06:26.340Z,9424
2017-09-07T12:07:26.904Z,9772
2017-09-07T12:08:26.603Z,9672
2017-09-07T12:09:26.902Z,9772
2017-09-07T12:10:26.609Z,9872
2017-09-07T12:11:26.963Z,9996
2017-09-07T12:12:26.620Z,10000
2017-09-07T12:13:26.951Z,9904
2017-09-07T12:14:26.613Z,9848
2017-09-07T12:15:26.617Z,9800
2017-09-07T12:16:26.986Z,9728
2017-09-07T12:17:26.938Z,9516
2017-09-07T12:18:26.639Z,9288
2017-09-07T12:19:26.639Z,9124
2017-09-07T12:20:26.644Z,9036
2017-09-07T12:21:26.967Z,9020
2017-09-07T12:22:26.641Z,8984
2017-09-07T12:23:26.961Z,9024
2017-09-07T12:24:27.708Z,9104
2017-09-07T12:25:26.968Z,9176
2017-09-07T12:26:26.957Z,9312
2017-09-07T12:27:26.347Z,9476
2017-09-07T12:28:26.973Z,9736
2017-09-07T12:29:26.977Z,9924
2017-09-07T12:30:26.689Z,9992
2017-09-07T12:31:27.016Z,10140
2017-09-07T12:32:26.698Z,10284
2017-09-07T12:33:26.690Z,10280
2017-09-07T12:34:27.003Z,10244
2017-09-07T12:35:26.997Z,10160
2017-09-07T12:36:26.737Z,10080
2017-09-07T12:37:26.702Z,9940
2017-09-07T12:38:27.002Z,9816
2017-09-07T12:39:26.705Z,9784
2017-09-07T12:40:27.096Z,9800
2017-09-07T12:41:26.709Z,10920
2017-09-07T12:42:27.017Z,10720
2017-09-07T12:43:27.033Z,10296
2017-09-07T12:44:26.407Z,9216
2017-09-07T12:45:26.720Z,8552
2017-09-07T12:46:26.107Z,8244
2017-09-07T12:47:26.740Z,7836
2017-09-07T12:48:26.427Z,7308
2017-09-07T12:49:26.738Z,6992
2017-09-07T12:50:26.751Z,7024
2017-09-07T12:51:27.128Z,7568
2017-09-07T12:52:27.062Z,7932
2017-09-07T12:53:26.763Z,7832
2017-09-07T12:54:30.008Z,8684
2017-09-07T12:55:27.064Z,8288
2017-09-07T12:56:26.565Z,8368
2017-09-07T12:57:26.768Z,8704
2017-09-07T12:58:27.072Z,9208
2017-09-07T12:59:26.462Z,9380
2017-09-07T13:00:26.464Z,9320
2017-09-07T13:01:26.468Z,9160
2017-09-07T13:02:27.092Z,9180
2017-09-07T13:03:26.805Z,9088
2017-09-07T13:04:26.804Z,8844
2017-09-07T13:05:26.487Z,8552
2017-09-07T13:06:26.570Z,8280
2017-09-07T13:07:27.119Z,8200
2017-09-07T13:08:26.804Z,8264
2017-09-07T13:09:26.834Z,8376
2017-09-07T13:10:27.122Z,9196
2017-09-07T13:11:26.573Z,9128
2017-09-07T13:12:27.149Z,9072
2017-09-07T13:13:26.515Z,9124
2017-09-07T13:14:26.842Z,10076
2017-09-07T13:15:26.833Z,9140
2017-09-07T13:16:27.203Z,9032
2017-09-07T13:17:27.148Z,8896
2017-09-07T13:18:26.839Z,8892
2017-09-07T13:19:26.847Z,8708
2017-09-07T13:20:26.862Z,8592
2017-09-07T13:21:26.859Z,8660
2017-09-07T13:22:26.873Z,8848
2017-09-07T13:23:27.162Z,8924
2017-09-07T13:24:26.823Z,9648
2017-09-07T13:25:26.875Z,8960
2017-09-07T13:26:26.913Z,8968
2017-09-07T13:27:26.890Z,8960
2017-09-07T13:28:27.181Z,9068
2017-09-07T13:29:26.888Z,9416
2017-09-07T13:30:26.901Z,9364
2017-09-07T13:31:27.207Z,9468
2017-09-07T13:32:26.895Z,9616
2017-09-07T13:33:26.583Z,9760
2017-09-07T13:34:26.902Z,9952
2017-09-07T13:35:26.287Z,9984
2017-09-07T13:36:26.960Z,9876
2017-09-07T13:37:26.919Z,9756
2017-09-07T13:38:26.914Z,9492
2017-09-07T13:39:27.671Z,9128
2017-09-07T13:40:26.919Z,8844
2017-09-07T13:41:26.953Z,8916
2017-09-07T13:42:27.238Z,8948
2017-09-07T13:43:26.625Z,9000
2017-09-07T13:44:26.633Z,9272
2017-09-07T13:45:26.939Z,9016
2017-09-07T13:46:27.249Z,9008